»·PEaware :: DAL814 KATL-KLAS

DAL814 :: KATL-KLAS

FLIGHT INFORMATION

Flight Status: Arrived
Operator:
Delta Air Lines
More flights by this operator :: More flights under this callsign
Pilot: Andrew J. (13363)
Aircraft: BOEING 767-300
(B763)
More flights by this aircraft type
Origin: KATL Hartsfield-Jackson Atlanta
United States
Destination: KLAS McCarran Intl
United States
More flights between these airports :: More routes between these airports
Route: + / FTI077093 PGS TYSSN5
File this flight plan on PilotEdge
Remarks:
Altitude:
(Current/Filed)
38,000ft
Speed:
(Current/Filed)
483kts
Departed: 19-Oct-20 03:00 PM
Arrived: 19-Oct-20 06:32 PM
Distance/Time
Traveled:
1513nm/3:32
Distance/Time
To Go:
Arrived

Flight Plot

Page will automatically refresh every two minutes.

Flight plan parsing failed; only flown route is shown


Map Options




Map Legend


Flown Route
Filed Route
Departure Airport
Arrival Airport
Navaid (VOR, NDB)
Fix

Horizontal Profiles

Position Reports

Time Latitude Longitude Heading Altitude Ground
Speed
19-Oct-20 14:58 33.791970 -84.286079 327 8590ft 272kts
19-Oct-20 14:59 33.813027 -84.373148 271 10389ft 329kts
19-Oct-20 15:00 33.814549 -84.496121 270 12872ft 385kts
19-Oct-20 15:01 33.798561 -84.624950 258 16218ft 400kts
19-Oct-20 15:02 33.787221 -84.694242 258 17905ft 409kts
19-Oct-20 15:03 33.765560 -84.825637 258 20937ft 425kts
19-Oct-20 15:04 33.742010 -84.967422 258 23865ft 441kts
19-Oct-20 15:05 33.717456 -85.114155 258 26611ft 455kts
19-Oct-20 15:06 33.698450 -85.265694 268 29144ft 469kts
19-Oct-20 15:07 33.696467 -85.421302 268 32341ft 459kts
19-Oct-20 15:08 33.694559 -85.573015 267 34800ft 451kts
19-Oct-20 15:09 33.692503 -85.723202 267 36190ft 450kts
19-Oct-20 15:10 33.690303 -85.871491 267 36194ft 445kts
19-Oct-20 15:11 33.687915 -86.020329 267 36195ft 445kts
19-Oct-20 15:12 33.697529 -86.168773 273 36200ft 447kts
19-Oct-20 15:13 33.709074 -86.317475 273 36200ft 447kts
19-Oct-20 15:15 33.720439 -86.465787 273 36199ft 447kts
19-Oct-20 15:16 33.731657 -86.614492 273 36198ft 447kts
19-Oct-20 15:17 33.742658 -86.762692 273 36203ft 446kts
19-Oct-20 15:18 33.753529 -86.911566 273 36201ft 446kts
19-Oct-20 15:19 33.764146 -87.059319 272 36184ft 444kts
19-Oct-20 15:20 33.774601 -87.207582 271 36174ft 445kts
19-Oct-20 15:21 33.784852 -87.355427 271 36173ft 444kts
19-Oct-20 15:22 33.798038 -87.503174 280 36176ft 448kts
19-Oct-20 15:23 33.826762 -87.648815 280 36172ft 448kts
19-Oct-20 15:24 33.855508 -87.794752 279 36177ft 448kts
19-Oct-20 15:25 33.884067 -87.940647 279 36164ft 448kts
19-Oct-20 15:26 33.912358 -88.086141 279 36141ft 448kts
19-Oct-20 15:27 33.940568 -88.232199 279 36138ft 448kts
19-Oct-20 15:28 33.968582 -88.378232 279 36137ft 448kts
19-Oct-20 15:29 33.996462 -88.524563 279 36134ft 448kts
19-Oct-20 15:29 34.019539 -88.646456 279 36130ft 448kts
19-Oct-20 15:31 34.051619 -88.817038 279 36132ft 447kts
19-Oct-20 15:32 34.078907 -88.963257 279 36132ft 447kts
19-Oct-20 15:33 34.106089 -89.109956 279 36125ft 447kts
19-Oct-20 15:34 34.133063 -89.256554 279 36130ft 447kts
19-Oct-20 15:34 34.155348 -89.378443 279 36132ft 448kts
19-Oct-20 15:36 34.186554 -89.550383 279 36131ft 448kts
19-Oct-20 15:36 34.208547 -89.672432 278 36122ft 447kts
19-Oct-20 15:37 34.234869 -89.819509 278 36109ft 447kts
19-Oct-20 15:38 34.261006 -89.966602 278 36107ft 448kts
19-Oct-20 15:39 34.286956 -90.113716 278 36105ft 447kts
19-Oct-20 15:40 34.312664 -90.260534 278 36098ft 448kts
19-Oct-20 15:41 34.338390 -90.408561 278 36889ft 449kts
19-Oct-20 15:42 34.363828 -90.556048 278 38096ft 449kts
19-Oct-20 15:43 34.389088 -90.703585 278 38100ft 445kts
19-Oct-20 15:44 34.414142 -90.851132 278 38099ft 446kts
19-Oct-20 15:45 34.438958 -90.998362 278 38098ft 447kts
19-Oct-20 15:46 34.463641 -91.145976 278 38081ft 448kts
19-Oct-20 15:47 34.488232 -91.294074 279 38071ft 448kts
19-Oct-20 15:48 34.512681 -91.442541 279 38071ft 449kts
19-Oct-20 15:49 34.536921 -91.590924 279 38070ft 449kts
19-Oct-20 15:50 34.561040 -91.739764 278 38074ft 449kts
19-Oct-20 15:51 34.584873 -91.888038 278 38075ft 449kts
19-Oct-20 15:52 34.608641 -92.037106 278 38075ft 449kts
19-Oct-20 15:53 34.632246 -92.186381 278 38072ft 449kts
19-Oct-20 15:54 34.655619 -92.335422 278 38071ft 449kts
19-Oct-20 15:55 34.678782 -92.484357 278 38071ft 449kts
19-Oct-20 15:56 34.701823 -92.633763 278 38070ft 449kts
19-Oct-20 15:57 34.724641 -92.782970 278 38075ft 448kts
19-Oct-20 15:58 34.747218 -92.931919 278 38075ft 448kts
19-Oct-20 15:59 34.769670 -93.081338 279 38078ft 449kts
19-Oct-20 16:00 34.791875 -93.230292 279 38080ft 450kts
19-Oct-20 16:01 34.813986 -93.379972 279 38082ft 450kts
19-Oct-20 16:02 34.835568 -93.527375 279 38084ft 449kts
19-Oct-20 16:03 34.857142 -93.676037 278 38093ft 449kts
19-Oct-20 16:04 34.878732 -93.826131 279 38101ft 449kts
19-Oct-20 16:05 34.900033 -93.975584 279 38094ft 446kts
19-Oct-20 16:06 34.921057 -94.124429 279 38098ft 445kts
19-Oct-20 16:07 34.941872 -94.273173 279 38117ft 445kts
19-Oct-20 16:08 34.962437 -94.421504 279 38125ft 444kts
19-Oct-20 16:09 34.982839 -94.570030 279 38133ft 443kts
19-Oct-20 16:10 35.003104 -94.718930 278 38139ft 443kts
19-Oct-20 16:11 35.023050 -94.866900 278 38139ft 441kts
19-Oct-20 16:12 35.042792 -95.014787 279 38144ft 441kts
19-Oct-20 16:13 35.062309 -95.162339 279 38145ft 441kts
19-Oct-20 16:14 35.081710 -95.310475 279 38142ft 441kts
19-Oct-20 16:15 35.100870 -95.458227 279 38130ft 441kts
19-Oct-20 16:16 35.119933 -95.606627 279 38125ft 442kts
19-Oct-20 16:17 35.138783 -95.754918 278 38129ft 441kts
19-Oct-20 16:18 35.157466 -95.903361 278 38129ft 441kts
19-Oct-20 16:19 35.175943 -96.051657 278 38131ft 441kts
19-Oct-20 16:20 35.194284 -96.200390 278 38147ft 441kts
19-Oct-20 16:21 35.212379 -96.348659 278 38143ft 441kts
19-Oct-20 16:22 35.230404 -96.497927 278 38123ft 441kts
19-Oct-20 16:23 35.248192 -96.646809 278 38118ft 442kts
19-Oct-20 16:24 35.265736 -96.795244 278 38121ft 441kts
19-Oct-20 16:25 35.283128 -96.944000 278 38119ft 441kts
19-Oct-20 16:26 35.300327 -97.092800 278 38109ft 438kts
19-Oct-20 16:27 35.317191 -97.240204 279 38097ft 435kts
19-Oct-20 16:28 35.333841 -97.387301 279 38097ft 437kts
19-Oct-20 16:29 35.350324 -97.534641 279 38100ft 437kts
19-Oct-20 16:30 35.363570 -97.682977 276 38111ft 437kts
19-Oct-20 16:31 35.373748 -97.831554 276 38116ft 437kts
19-Oct-20 16:32 35.383647 -97.980002 276 38119ft 437kts
19-Oct-20 16:33 35.393349 -98.128328 276 38118ft 437kts
19-Oct-20 16:34 35.402890 -98.277042 276 38110ft 437kts
19-Oct-20 16:35 35.412243 -98.425659 276 38099ft 437kts
19-Oct-20 16:36 35.421383 -98.573845 276 38096ft 437kts
19-Oct-20 16:37 35.430377 -98.722674 275 38105ft 437kts
19-Oct-20 16:38 35.439195 -98.871643 275 38110ft 437kts
19-Oct-20 16:39 35.447874 -99.021230 275 38108ft 440kts
19-Oct-20 16:40 35.456402 -99.171657 275 38102ft 443kts
19-Oct-20 16:41 35.464745 -99.322164 275 38086ft 442kts
19-Oct-20 16:42 35.472922 -99.473026 275 38080ft 442kts
19-Oct-20 16:43 35.480905 -99.623806 275 38079ft 442kts
19-Oct-20 16:44 35.488678 -99.774167 274 38083ft 442kts
19-Oct-20 16:45 35.496284 -99.924935 274 38078ft 442kts
19-Oct-20 16:46 35.503896 -100.075452 274 38065ft 442kts
19-Oct-20 16:47 35.511549 -100.226284 274 38062ft 442kts
19-Oct-20 16:48 35.519015 -100.377183 274 38062ft 442kts
19-Oct-20 16:49 35.526282 -100.527907 274 38061ft 442kts
19-Oct-20 16:50 35.533360 -100.678606 274 38069ft 442kts
19-Oct-20 16:51 35.540255 -100.829406 274 38074ft 443kts
19-Oct-20 16:52 35.546992 -100.980836 273 39128ft 446kts
19-Oct-20 16:53 35.553571 -101.133251 273 40050ft 447kts
19-Oct-20 16:54 35.559977 -101.286045 273 40045ft 446kts
19-Oct-20 16:55 35.566172 -101.438418 273 40044ft 446kts
19-Oct-20 16:56 35.572165 -101.590498 273 40045ft 446kts
19-Oct-20 16:57 35.577977 -101.742910 273 40057ft 446kts
19-Oct-20 16:58 35.583604 -101.895524 273 40071ft 446kts
19-Oct-20 16:59 35.589010 -102.047291 273 40082ft 446kts
19-Oct-20 17:00 35.594252 -102.199938 273 40081ft 446kts
19-Oct-20 17:01 35.599289 -102.352154 273 40069ft 446kts
19-Oct-20 17:02 35.604133 -102.504415 273 40052ft 446kts
19-Oct-20 17:03 35.611055 -102.656734 273 40052ft 446kts
19-Oct-20 17:04 35.618048 -102.808901 273 40055ft 446kts
19-Oct-20 17:05 35.624823 -102.961189 273 40063ft 446kts
19-Oct-20 17:06 35.631397 -103.113373 273 40018ft 448kts
19-Oct-20 17:07 35.637820 -103.266510 273 39979ft 449kts
19-Oct-20 17:09 35.644054 -103.419779 273 39981ft 449kts
19-Oct-20 17:10 35.650097 -103.573215 273 39978ft 449kts
19-Oct-20 17:11 35.655953 -103.726773 273 39983ft 449kts
19-Oct-20 17:12 35.661614 -103.880410 273 39982ft 449kts
19-Oct-20 17:13 35.667085 -104.034227 273 39980ft 449kts
19-Oct-20 17:14 35.672344 -104.187599 273 39984ft 449kts
19-Oct-20 17:15 35.677419 -104.341165 273 40078ft 449kts
19-Oct-20 17:16 35.682292 -104.494607 273 40126ft 449kts
19-Oct-20 17:17 35.686978 -104.648406 273 40124ft 449kts
19-Oct-20 17:18 35.691454 -104.801659 272 40128ft 449kts
19-Oct-20 17:19 35.695762 -104.955962 272 40129ft 449kts
19-Oct-20 17:20 35.699860 -105.109749 273 40127ft 450kts
19-Oct-20 17:21 35.703770 -105.263746 273 40126ft 450kts
19-Oct-20 17:22 35.707484 -105.417924 273 40126ft 450kts
19-Oct-20 17:23 35.710992 -105.571688 273 40124ft 450kts
19-Oct-20 17:23 35.713774 -105.700147 272 40128ft 450kts
19-Oct-20 17:25 35.717437 -105.879828 272 40129ft 450kts
19-Oct-20 17:25 35.719885 -106.007976 272 40136ft 450kts
19-Oct-20 17:27 35.723099 -106.188352 272 40161ft 450kts
19-Oct-20 17:28 35.725635 -106.342679 272 40190ft 451kts
19-Oct-20 17:28 35.727598 -106.471435 272 40189ft 450kts
19-Oct-20 17:30 35.730109 -106.651010 271 40178ft 451kts
19-Oct-20 17:30 35.731746 -106.779562 271 40161ft 450kts
19-Oct-20 17:31 35.733527 -106.933733 271 40146ft 451kts
19-Oct-20 17:32 35.735111 -107.088133 271 40136ft 452kts
19-Oct-20 17:33 35.736501 -107.242824 271 40135ft 452kts
19-Oct-20 17:34 35.737690 -107.397332 271 40161ft 452kts
19-Oct-20 17:35 35.738687 -107.552024 271 40198ft 452kts
19-Oct-20 17:36 35.739482 -107.706805 271 40202ft 452kts
19-Oct-20 17:37 35.740081 -107.861177 271 40201ft 452kts
19-Oct-20 17:38 35.740482 -108.015977 271 40200ft 452kts
19-Oct-20 17:39 35.740685 -108.170442 271 40194ft 452kts
19-Oct-20 17:40 35.740689 -108.324990 271 40190ft 452kts
19-Oct-20 17:41 35.740495 -108.479339 271 40189ft 452kts
19-Oct-20 17:42 35.740105 -108.633936 271 40188ft 452kts
19-Oct-20 17:43 35.739517 -108.788944 270 40193ft 452kts
19-Oct-20 17:44 35.738733 -108.943250 270 40199ft 452kts
19-Oct-20 17:45 35.737744 -109.097767 271 40200ft 450kts
19-Oct-20 17:46 35.736569 -109.251810 271 40198ft 449kts
19-Oct-20 17:47 35.735200 -109.405540 271 40199ft 449kts
19-Oct-20 17:48 35.733635 -109.559295 271 40197ft 449kts
19-Oct-20 17:49 35.731875 -109.712898 270 40202ft 450kts
19-Oct-20 17:50 35.729916 -109.867031 270 40200ft 449kts
19-Oct-20 17:51 35.727767 -110.020356 270 40170ft 449kts
19-Oct-20 17:52 35.725417 -110.174050 270 40111ft 449kts
19-Oct-20 17:53 35.722882 -110.327281 270 40107ft 449kts
19-Oct-20 17:54 35.720148 -110.480754 270 40107ft 449kts
19-Oct-20 17:55 35.717213 -110.634483 270 40106ft 449kts
19-Oct-20 17:56 35.714088 -110.788095 270 40109ft 449kts
19-Oct-20 17:57 35.710759 -110.941921 270 40113ft 449kts
19-Oct-20 17:58 35.707224 -111.096214 270 40127ft 451kts
19-Oct-20 17:59 35.703476 -111.251101 270 40181ft 452kts
19-Oct-20 18:00 35.699538 -111.405664 270 40245ft 452kts
19-Oct-20 18:01 35.695399 -111.560366 270 40243ft 452kts
19-Oct-20 18:02 35.691054 -111.715409 269 40243ft 453kts
19-Oct-20 18:03 35.686537 -111.869525 269 40238ft 452kts
19-Oct-20 18:04 35.681808 -112.024028 269 40237ft 452kts
19-Oct-20 18:05 35.676879 -112.178684 269 40227ft 452kts
19-Oct-20 18:06 35.671899 -112.328063 269 40207ft 408kts
19-Oct-20 18:07 35.667326 -112.461992 269 40231ft 391kts
19-Oct-20 18:08 35.662595 -112.595722 269 39878ft 399kts
19-Oct-20 18:09 35.657304 -112.740988 269 37452ft 453kts
19-Oct-20 18:10 35.651476 -112.894420 269 34770ft 453kts
19-Oct-20 18:11 35.645350 -113.051216 269 32038ft 465kts
19-Oct-20 18:12 35.638875 -113.211285 269 29212ft 471kts
19-Oct-20 18:13 35.632273 -113.369129 269 26510ft 454kts
19-Oct-20 18:14 35.625755 -113.520637 268 24344ft 437kts
19-Oct-20 18:15 35.642016 -113.666618 281 24052ft 432kts
19-Oct-20 18:16 35.663057 -113.813057 281 24057ft 438kts
19-Oct-20 18:17 35.683754 -113.959852 281 22221ft 429kts
19-Oct-20 18:18 35.703622 -114.102093 281 19409ft 413kts
19-Oct-20 18:19 35.721769 -114.233194 281 16574ft 369kts
19-Oct-20 18:20 35.741399 -114.351546 296 13757ft 345kts
19-Oct-20 18:21 35.791646 -114.451341 301 12001ft 324kts
19-Oct-20 18:22 35.835017 -114.538294 302 12007ft 288kts
19-Oct-20 18:23 35.877218 -114.622422 302 11960ft 290kts
19-Oct-20 18:24 35.919862 -114.707616 302 10290ft 296kts
19-Oct-20 18:25 35.963395 -114.794798 303 8219ft 290kts
19-Oct-20 18:26 36.004046 -114.875181 308 5974ft 258kts
19-Oct-20 18:27 36.037273 -114.941033 302 4399ft 222kts
19-Oct-20 18:28 36.065252 -114.999098 301 3432ft 168kts
19-Oct-20 18:29 36.073868 -115.052785 272 3145ft 162kts
19-Oct-20 18:30 36.073802 -115.109141 270 2452ft 158kts
19-Oct-20 18:31 36.073753 -115.152597 285 2190ft 31kts
19-Oct-20 18:32 36.075355 -115.156161 312 2190ft 13kts
19-Oct-20 18:33 36.078041 -115.156247 91 2190ft 10kts
19-Oct-20 18:34 36.078037 -115.151827 89 2190ft 16kts
19-Oct-20 18:35 36.077660 -115.145206 95 2190ft 23kts
19-Oct-20 18:36 36.077578 -115.138333 77 2190ft 6kts
19-Oct-20 18:37 36.078433 -115.139241 322 2190ft 6kts
19-Oct-20 18:38 36.079760 -115.138782 316 2190ft 4kts
19-Oct-20 18:39 36.080145 -115.139255 315 2190ft 0kts
19-Oct-20 18:40 36.080145 -115.139255 315 2190ft 0kts
19-Oct-20 18:41 36.080145 -115.139255 315 2190ft 0kts
19-Oct-20 18:42 36.080145 -115.139255 315 2190ft 0kts
19-Oct-20 18:43 36.080145 -115.139255 315 2190ft 0kts
19-Oct-20 18:44 36.080145 -115.139255 315 2190ft 0kts

Navigation Log

Ident Type
Flight plan parsing failed, navigation log unavailable